createdAt,value
2018-02-13T00:01:31.920Z,-1.61
2018-02-13T00:03:59.416Z,-1.05
2018-02-13T00:06:26.860Z,-1.15
2018-02-13T00:08:54.298Z,-1.93
2018-02-13T00:11:21.941Z,-2.07
2018-02-13T00:13:49.391Z,-2.12
2018-02-13T00:16:16.832Z,-2.22
2018-02-13T00:18:44.448Z,-2.34
2018-02-13T00:21:11.888Z,-2.34
2018-02-13T00:23:39.341Z,-2.53
2018-02-13T00:26:06.817Z,-2.61
2018-02-13T00:28:34.253Z,-2.54
2018-02-13T00:31:01.842Z,-2.70
2018-02-13T00:33:29.306Z,-2.70
2018-02-13T00:35:56.768Z,-2.78
2018-02-13T00:38:24.210Z,-2.76
2018-02-13T00:40:51.676Z,-2.72
2018-02-13T00:43:19.113Z,-2.83
2018-02-13T00:45:46.548Z,-2.94
2018-02-13T00:48:14.396Z,-3.01
2018-02-13T00:50:41.841Z,-3.06
2018-02-13T00:53:09.286Z,-2.89
2018-02-13T00:55:36.789Z,-3.03
2018-02-13T00:58:04.337Z,-3.09
2018-02-13T01:00:31.814Z,-3.04
2018-02-13T01:02:59.253Z,-3.03
2018-02-13T01:05:26.694Z,-3.26
2018-02-13T01:07:54.155Z,-3.25
2018-02-13T01:10:21.593Z,-3.45
2018-02-13T01:12:49.296Z,-3.37
2018-02-13T01:15:16.740Z,-3.32
2018-02-13T01:17:44.182Z,-3.37
2018-02-13T01:20:11.656Z,-3.37
2018-02-13T01:22:39.146Z,-3.41
2018-02-13T01:25:06.855Z,-3.30
2018-02-13T01:27:34.381Z,-3.29
2018-02-13T01:30:01.833Z,-3.38
2018-02-13T01:32:29.292Z,-3.40
2018-02-13T01:34:56.733Z,-3.18
2018-02-13T01:37:24.360Z,-3.30
2018-02-13T01:39:51.804Z,-3.33
2018-02-13T01:42:19.274Z,-3.44
2018-02-13T01:44:46.756Z,-3.64
2018-02-13T01:47:14.214Z,-3.48
2018-02-13T01:49:41.712Z,-3.52
2018-02-13T01:52:09.178Z,-3.62
2018-02-13T01:54:36.616Z,-3.62
2018-02-13T01:57:04.077Z,-3.62
2018-02-13T01:59:31.516Z,-3.73
2018-02-13T02:01:59.013Z,-3.64
2018-02-13T02:04:26.460Z,-3.65
2018-02-13T02:06:53.896Z,-3.57
2018-02-13T02:09:21.384Z,-3.96
2018-02-13T02:11:48.820Z,-3.80
2018-02-13T02:14:16.318Z,-3.93
2018-02-13T02:16:43.766Z,-3.64
2018-02-13T02:19:11.225Z,-3.60
2018-02-13T02:21:38.684Z,-3.54
2018-02-13T02:24:06.125Z,-3.32
2018-02-13T02:26:33.897Z,-3.38
2018-02-13T02:29:01.352Z,-3.47
2018-02-13T02:31:28.796Z,-3.59
2018-02-13T02:33:56.263Z,-3.64
2018-02-13T02:36:23.700Z,-3.54
2018-02-13T02:38:51.349Z,-3.54
2018-02-13T02:41:18.785Z,-3.46
2018-02-13T02:43:46.224Z,-3.65
2018-02-13T02:46:13.680Z,-3.72
2018-02-13T02:48:41.133Z,-3.69
2018-02-13T02:51:08.701Z,-3.78
2018-02-13T02:53:36.166Z,-3.80
2018-02-13T02:56:03.604Z,-3.61
2018-02-13T02:58:31.080Z,-3.70
2018-02-13T03:00:58.530Z,-3.85
2018-02-13T03:03:26.104Z,-3.86
2018-02-13T03:05:53.553Z,-3.90
2018-02-13T03:08:20.988Z,-3.90
2018-02-13T03:10:48.474Z,-3.82
2018-02-13T03:13:15.916Z,-3.99
2018-02-13T03:15:43.420Z,-4.00
2018-02-13T03:18:10.858Z,-4.04
2018-02-13T03:20:38.305Z,-4.04
2018-02-13T03:23:05.788Z,-4.07
2018-02-13T03:25:33.228Z,-4.02
2018-02-13T03:28:00.957Z,-4.26
2018-02-13T03:30:28.413Z,-4.15
2018-02-13T03:32:55.856Z,-4.12
2018-02-13T03:35:23.328Z,-4.12
2018-02-13T03:37:50.768Z,-4.14
2018-02-13T03:40:18.256Z,-4.25
2018-02-13T03:42:45.696Z,-4.25
2018-02-13T03:45:13.146Z,-4.09
2018-02-13T03:47:40.637Z,-4.16
2018-02-13T03:50:08.078Z,-3.96
2018-02-13T03:52:35.744Z,-3.90
2018-02-13T03:55:03.274Z,-3.83
2018-02-13T03:57:30.732Z,-3.79
2018-02-13T03:59:58.193Z,-3.63
2018-02-13T04:02:25.662Z,-3.55
2018-02-13T04:04:53.293Z,-3.59
2018-02-13T04:07:20.752Z,-3.47
2018-02-13T04:09:48.196Z,-3.30
2018-02-13T04:12:15.657Z,-3.24
2018-02-13T04:14:43.097Z,-3.12
2018-02-13T04:17:10.753Z,-3.02
2018-02-13T04:19:38.194Z,-2.85
2018-02-13T04:22:05.645Z,-2.77
2018-02-13T04:24:33.128Z,-2.89
2018-02-13T04:27:00.570Z,-3.02
2018-02-13T04:29:28.057Z,-3.05
2018-02-13T04:31:55.522Z,-3.02
2018-02-13T04:34:22.991Z,-2.92
2018-02-13T04:36:50.449Z,-2.87
2018-02-13T04:39:17.904Z,-2.73
2018-02-13T04:41:45.605Z,-2.69
2018-02-13T04:44:13.041Z,-2.73
2018-02-13T04:46:40.492Z,-2.62
2018-02-13T04:49:07.948Z,-2.55
2018-02-13T04:51:35.408Z,-2.47
2018-02-13T04:54:02.885Z,-2.46
2018-02-13T04:56:30.345Z,-2.46
2018-02-13T04:58:57.781Z,-2.31
2018-02-13T05:01:25.254Z,-2.36
2018-02-13T05:03:52.696Z,-2.27
2018-02-13T05:06:20.355Z,-2.19
2018-02-13T05:08:47.817Z,-2.26
2018-02-13T05:11:15.260Z,-2.25
2018-02-13T05:13:42.716Z,-1.88
2018-02-13T05:16:10.154Z,-1.78
2018-02-13T05:18:37.641Z,-1.85
2018-02-13T05:21:05.079Z,-1.90
2018-02-13T05:23:32.520Z,-2.15
2018-02-13T05:25:59.984Z,-1.94
2018-02-13T05:28:27.438Z,-2.17
2018-02-13T05:30:55.148Z,-2.26
2018-02-13T05:33:22.589Z,-2.25
2018-02-13T05:35:50.046Z,-2.43
2018-02-13T05:38:17.508Z,-2.50
2018-02-13T05:40:44.948Z,-2.50
2018-02-13T05:43:12.597Z,-2.81
2018-02-13T05:45:40.033Z,-2.91
2018-02-13T05:48:07.468Z,-2.92
2018-02-13T05:50:34.945Z,-2.94
2018-02-13T05:53:02.384Z,-2.38
2018-02-13T05:55:30.078Z,-2.13
2018-02-13T05:57:57.544Z,-2.89
2018-02-13T06:00:24.988Z,-2.98
2018-02-13T06:02:52.468Z,-3.11
2018-02-13T06:05:19.912Z,-3.33
2018-02-13T06:07:47.501Z,-3.36
2018-02-13T06:10:14.965Z,-3.43
2018-02-13T06:12:42.409Z,-3.47
2018-02-13T06:15:09.876Z,-3.42
2018-02-13T06:17:37.312Z,-3.58
2018-02-13T06:20:04.800Z,-3.60
2018-02-13T06:22:32.253Z,-3.59
2018-02-13T06:24:59.695Z,-3.61
2018-02-13T06:27:27.156Z,-3.87
2018-02-13T06:29:54.613Z,-3.87
2018-02-13T06:32:22.288Z,-3.89
2018-02-13T06:34:49.730Z,-3.98
2018-02-13T06:37:17.181Z,-4.02
2018-02-13T06:39:44.679Z,-3.96
2018-02-13T06:42:12.116Z,-4.03
2018-02-13T06:44:39.768Z,-4.03
2018-02-13T06:47:07.204Z,-3.90
2018-02-13T06:49:34.654Z,-4.05
2018-02-13T06:52:02.120Z,-4.02
2018-02-13T06:54:29.574Z,-3.81
2018-02-13T06:56:57.188Z,-3.96
2018-02-13T06:59:24.624Z,-4.03
2018-02-13T07:01:52.082Z,-3.95
2018-02-13T07:04:19.544Z,-3.91
2018-02-13T07:06:46.984Z,-3.89
2018-02-13T07:09:14.456Z,-3.89
2018-02-13T07:11:41.913Z,-3.97
2018-02-13T07:14:09.356Z,-3.84
2018-02-13T07:16:36.824Z,-3.61
2018-02-13T07:19:04.272Z,-3.77
2018-02-13T07:21:31.736Z,-3.36
2018-02-13T07:23:59.181Z,-3.52
2018-02-13T07:26:26.652Z,-3.60
2018-02-13T07:28:54.128Z,-3.55
2018-02-13T07:31:21.564Z,-3.56
2018-02-13T07:33:49.140Z,-3.40
2018-02-13T07:36:16.580Z,-3.49
2018-02-13T07:38:44.036Z,-3.20
2018-02-13T07:41:11.501Z,-3.20
2018-02-13T07:43:38.941Z,-3.07
2018-02-13T07:46:06.596Z,-3.05
2018-02-13T07:48:34.042Z,-2.79
2018-02-13T07:51:01.489Z,-2.81
2018-02-13T07:53:28.960Z,-2.46
2018-02-13T07:55:56.417Z,-2.57
2018-02-13T07:58:24.140Z,-2.52
2018-02-13T08:00:51.581Z,-2.44
2018-02-13T08:03:19.026Z,-2.40
2018-02-13T08:05:46.488Z,-2.25
2018-02-13T08:08:13.932Z,-2.27
2018-02-13T08:10:41.412Z,-2.26
2018-02-13T08:13:08.853Z,-2.17
2018-02-13T08:15:36.312Z,-2.01
2018-02-13T08:18:03.797Z,-1.82
2018-02-13T08:20:31.257Z,-1.76
2018-02-13T08:22:58.732Z,-1.53
2018-02-13T08:25:26.185Z,-1.55
2018-02-13T08:27:53.629Z,-1.48
2018-02-13T08:30:21.108Z,-1.29
2018-02-13T08:32:48.554Z,-1.32
2018-02-13T08:35:16.188Z,-1.32
2018-02-13T08:37:43.628Z,-1.21
2018-02-13T08:40:11.077Z,-1.22
2018-02-13T08:42:38.587Z,-1.08
2018-02-13T08:45:06.028Z,-1.03
2018-02-13T08:47:33.632Z,-0.86
2018-02-13T08:50:01.089Z,-0.82
2018-02-13T08:52:28.545Z,-0.78
2018-02-13T08:54:56.008Z,-0.58
2018-02-13T08:57:23.470Z,-0.44
2018-02-13T08:59:51.084Z,-0.67
2018-02-13T09:02:18.541Z,-0.42
2018-02-13T09:04:46.025Z,-0.28
2018-02-13T09:07:13.492Z,-0.13
2018-02-13T09:09:40.949Z,-0.25
2018-02-13T09:12:08.421Z,0.05
2018-02-13T09:14:35.856Z,0.34
2018-02-13T09:17:03.292Z,0.36
2018-02-13T09:19:30.765Z,0.31
2018-02-13T09:21:58.204Z,0.43
2018-02-13T09:24:25.869Z,0.66
2018-02-13T09:26:53.311Z,0.61
2018-02-13T09:29:20.761Z,0.73
2018-02-13T09:31:48.225Z,1.02
2018-02-13T09:34:15.671Z,0.75
2018-02-13T09:36:43.172Z,0.72
2018-02-13T09:39:10.625Z,0.90
2018-02-13T09:41:38.069Z,0.98
2018-02-13T09:44:05.559Z,1.13
2018-02-13T09:46:32.992Z,1.18
2018-02-13T09:49:00.676Z,1.25
2018-02-13T09:51:28.130Z,1.28
2018-02-13T09:53:55.586Z,1.59
2018-02-13T09:56:23.105Z,1.59
2018-02-13T09:58:50.528Z,1.36
2018-02-13T10:01:18.133Z,1.69
2018-02-13T10:03:45.690Z,2.10
2018-02-13T10:06:13.185Z,1.98
2018-02-13T10:08:40.653Z,2.01
2018-02-13T10:11:08.104Z,2.08
2018-02-13T10:13:35.681Z,2.17
2018-02-13T10:16:03.117Z,2.02
2018-02-13T10:18:30.813Z,2.34
2018-02-13T10:20:58.268Z,2.57
2018-02-13T10:23:25.785Z,2.37
2018-02-13T10:25:53.623Z,2.52
2018-02-13T10:28:21.069Z,2.62
2018-02-13T10:30:48.521Z,2.51
2018-02-13T10:33:15.980Z,2.58
2018-02-13T10:35:43.423Z,2.60
2018-02-13T10:38:11.004Z,2.66
2018-02-13T10:40:38.442Z,2.62
2018-02-13T10:43:05.885Z,2.66
2018-02-13T10:45:33.356Z,2.67
2018-02-13T10:48:00.829Z,2.60
2018-02-13T10:50:28.540Z,2.76
2018-02-13T10:52:55.976Z,2.61
2018-02-13T10:55:23.408Z,2.70
2018-02-13T10:57:50.860Z,2.84
2018-02-13T11:00:18.296Z,3.01
2018-02-13T11:02:45.763Z,3.35
2018-02-13T11:05:13.285Z,3.28
2018-02-13T11:07:41.069Z,3.24
2018-02-13T11:10:08.504Z,3.46
2018-02-13T11:12:35.945Z,3.58
2018-02-13T11:15:03.419Z,3.42
2018-02-13T11:17:30.862Z,3.58
2018-02-13T11:19:58.684Z,3.79
2018-02-13T11:22:26.125Z,3.65
2018-02-13T11:24:53.573Z,3.79
2018-02-13T11:27:21.050Z,3.85
2018-02-13T11:29:48.521Z,4.13
2018-02-13T11:32:16.166Z,3.99
2018-02-13T11:34:43.690Z,4.10
2018-02-13T11:37:11.113Z,4.32
2018-02-13T11:39:38.580Z,4.42
2018-02-13T11:42:06.100Z,4.45
2018-02-13T11:44:33.738Z,4.41
2018-02-13T11:47:01.165Z,4.60
2018-02-13T11:49:28.648Z,4.71
2018-02-13T11:51:56.123Z,4.85
2018-02-13T11:54:23.561Z,4.72
2018-02-13T11:56:51.446Z,4.72
2018-02-13T11:59:18.873Z,4.70
2018-02-13T12:01:46.311Z,4.91
2018-02-13T12:04:13.777Z,4.74
2018-02-13T12:06:41.216Z,4.82
2018-02-13T12:09:09.056Z,4.97
2018-02-13T12:11:36.496Z,4.87
2018-02-13T12:14:03.959Z,4.81
2018-02-13T12:16:31.423Z,4.70
2018-02-13T12:18:58.864Z,4.67
2018-02-13T12:21:26.359Z,4.84
2018-02-13T12:23:53.796Z,4.95
2018-02-13T12:26:21.260Z,4.99
2018-02-13T12:28:48.720Z,5.15
2018-02-13T12:31:16.154Z,5.10
2018-02-13T12:33:43.612Z,5.25
2018-02-13T12:36:11.052Z,5.38
2018-02-13T12:38:38.496Z,5.21
2018-02-13T12:41:05.973Z,5.37
2018-02-13T12:43:33.404Z,5.42
2018-02-13T12:46:01.033Z,5.48
2018-02-13T12:48:28.485Z,5.24
2018-02-13T12:50:55.925Z,5.30
2018-02-13T12:53:23.396Z,5.45
2018-02-13T12:55:50.829Z,5.49
2018-02-13T12:58:18.518Z,5.70
2018-02-13T13:00:45.968Z,5.75
2018-02-13T13:03:13.412Z,5.43
2018-02-13T13:05:40.869Z,5.26
2018-02-13T13:08:08.300Z,5.12
2018-02-13T13:10:36.041Z,5.23
2018-02-13T13:13:03.496Z,5.22
2018-02-13T13:15:30.938Z,5.02
2018-02-13T13:17:58.402Z,5.06
2018-02-13T13:20:25.848Z,4.97
2018-02-13T13:22:53.485Z,4.88
2018-02-13T13:25:20.925Z,4.92
2018-02-13T13:27:48.376Z,4.94
2018-02-13T13:30:15.828Z,4.93
2018-02-13T13:32:43.260Z,5.00
2018-02-13T13:35:11.051Z,5.01
2018-02-13T13:37:38.496Z,5.11
2018-02-13T13:40:05.937Z,5.13
2018-02-13T13:42:33.397Z,5.17
2018-02-13T13:45:00.836Z,5.01
2018-02-13T13:47:28.489Z,5.24
2018-02-13T13:49:55.933Z,5.18
2018-02-13T13:52:23.413Z,5.07
2018-02-13T13:54:50.902Z,5.12
2018-02-13T13:57:18.336Z,5.33
2018-02-13T13:59:46.134Z,5.18
2018-02-13T14:02:13.569Z,5.32
2018-02-13T14:04:47.501Z,5.29
2018-02-13T14:07:14.961Z,5.38
2018-02-13T14:09:42.396Z,5.43
2018-02-13T14:12:09.853Z,5.45
2018-02-13T14:14:37.305Z,5.34
2018-02-13T14:17:06.752Z,5.22
2018-02-13T14:19:34.192Z,5.05
2018-02-13T14:22:01.634Z,5.24
2018-02-13T14:24:29.113Z,5.30
2018-02-13T14:26:56.565Z,5.23
2018-02-13T14:29:24.180Z,5.44
2018-02-13T14:31:51.617Z,5.40
2018-02-13T14:34:19.070Z,5.44
2018-02-13T14:36:46.531Z,5.47
2018-02-13T14:39:13.970Z,5.37
2018-02-13T14:41:41.637Z,5.37
2018-02-13T14:44:09.074Z,5.57
2018-02-13T14:46:36.526Z,5.56
2018-02-13T14:49:03.996Z,5.45
2018-02-13T14:51:31.436Z,5.41
2018-02-13T14:53:59.096Z,5.17
2018-02-13T14:56:26.532Z,5.20
2018-02-13T14:58:54.000Z,5.33
2018-02-13T15:01:21.485Z,5.10
2018-02-13T15:03:48.927Z,5.16
2018-02-13T15:06:16.416Z,5.24
2018-02-13T15:08:43.871Z,5.37
2018-02-13T15:11:11.327Z,5.18
2018-02-13T15:13:38.796Z,4.94
2018-02-13T15:16:06.261Z,4.95
2018-02-13T15:18:37.190Z,4.90
2018-02-13T15:21:04.609Z,4.88
2018-02-13T15:23:32.193Z,4.92
2018-02-13T15:25:59.629Z,4.84
2018-02-13T15:28:27.078Z,4.96
2018-02-13T15:30:54.556Z,5.05
2018-02-13T15:33:21.996Z,5.03
2018-02-13T15:35:49.772Z,5.01
2018-02-13T15:38:17.234Z,4.87
2018-02-13T15:40:44.691Z,4.92
2018-02-13T15:43:12.152Z,4.86
2018-02-13T15:45:39.598Z,4.80
2018-02-13T15:48:07.068Z,4.81
2018-02-13T15:50:34.537Z,4.79
2018-02-13T15:53:01.988Z,4.72
2018-02-13T15:55:29.455Z,4.60
2018-02-13T15:57:56.892Z,4.56
2018-02-13T16:00:24.328Z,4.50
2018-02-13T16:02:51.789Z,4.47
2018-02-13T16:05:19.261Z,4.39
2018-02-13T16:07:46.713Z,4.31
2018-02-13T16:10:14.176Z,4.20
2018-02-13T16:12:41.617Z,4.20
2018-02-13T16:15:09.053Z,4.16
2018-02-13T16:17:36.530Z,4.19
2018-02-13T16:20:03.981Z,4.04
2018-02-13T16:22:31.432Z,3.99
2018-02-13T16:24:58.915Z,3.98
2018-02-13T16:27:26.360Z,3.98
2018-02-13T16:29:53.808Z,3.89
2018-02-13T16:32:21.441Z,3.76
2018-02-13T16:34:48.878Z,3.66
2018-02-13T16:37:16.313Z,3.54
2018-02-13T16:39:44.062Z,3.47
2018-02-13T16:42:11.496Z,3.42
2018-02-13T16:44:38.938Z,3.38
2018-02-13T16:47:06.425Z,3.31
2018-02-13T16:49:33.860Z,3.24
2018-02-13T16:52:01.336Z,3.17
2018-02-13T16:54:28.781Z,3.08
2018-02-13T16:56:56.252Z,3.02
2018-02-13T16:59:23.728Z,2.98
2018-02-13T17:01:51.166Z,2.89
2018-02-13T17:04:18.850Z,2.63
2018-02-13T17:06:46.317Z,2.35
2018-02-13T17:09:13.748Z,2.28
2018-02-13T17:11:41.232Z,2.36
2018-02-13T17:14:08.689Z,2.34
2018-02-13T17:16:36.168Z,2.30
2018-02-13T17:19:03.618Z,2.03
2018-02-13T17:21:31.056Z,1.93
2018-02-13T17:23:58.528Z,1.73
2018-02-13T17:26:25.985Z,1.72
2018-02-13T17:28:53.436Z,1.74
2018-02-13T17:31:20.882Z,1.65
2018-02-13T17:33:48.600Z,1.66
2018-02-13T17:36:16.056Z,1.57
2018-02-13T17:38:43.611Z,1.47
2018-02-13T17:41:11.093Z,1.40
2018-02-13T17:43:38.583Z,1.32
2018-02-13T17:46:06.244Z,1.35
2018-02-13T17:48:33.688Z,1.20
2018-02-13T17:51:01.134Z,1.17
2018-02-13T17:53:28.616Z,1.08
2018-02-13T17:55:56.073Z,1.07
2018-02-13T17:58:23.793Z,1.05
2018-02-13T18:00:51.229Z,0.97
2018-02-13T18:03:18.677Z,1.01
2018-02-13T18:05:46.173Z,1.00
2018-02-13T18:08:13.637Z,0.94
2018-02-13T18:10:41.401Z,0.97
2018-02-13T18:13:08.852Z,0.94
2018-02-13T18:15:36.292Z,0.90
2018-02-13T18:18:03.784Z,0.81
2018-02-13T18:20:31.257Z,0.94
2018-02-13T18:22:58.925Z,0.91
2018-02-13T18:25:26.364Z,0.87
2018-02-13T18:27:53.812Z,0.92
2018-02-13T18:30:21.337Z,0.84
2018-02-13T18:32:48.785Z,0.80
2018-02-13T18:35:16.464Z,0.71
2018-02-13T18:37:43.916Z,0.73
2018-02-13T18:40:11.365Z,0.74
2018-02-13T18:42:38.917Z,0.71
2018-02-13T18:45:06.367Z,0.68
2018-02-13T18:47:33.932Z,0.64
2018-02-13T18:50:01.384Z,0.62
2018-02-13T18:54:56.304Z,0.56
2018-02-13T18:57:23.761Z,0.56
2018-02-13T18:59:51.347Z,0.58
2018-02-13T19:02:18.875Z,0.55
2018-02-13T19:04:46.324Z,0.57
2018-02-13T19:07:13.786Z,0.53
2018-02-13T19:09:41.256Z,0.53
2018-02-13T19:12:08.905Z,0.53
2018-02-13T19:14:36.342Z,0.53
2018-02-13T19:19:33.162Z,0.52
2018-02-13T19:22:00.602Z,0.43
2018-02-13T19:24:28.193Z,0.42
2018-02-13T19:26:55.649Z,0.43
2018-02-13T19:29:23.096Z,0.44
2018-02-13T19:31:50.570Z,0.53
2018-02-13T19:34:18.019Z,0.56
2018-02-13T19:36:45.846Z,0.52
2018-02-13T19:39:13.349Z,0.58
2018-02-13T19:41:40.812Z,0.56
2018-02-13T19:44:08.280Z,0.53
2018-02-13T19:46:38.761Z,0.54
2018-02-13T19:49:06.241Z,0.52
2018-02-13T19:51:33.697Z,0.48
2018-02-13T19:54:01.146Z,0.42
2018-02-13T19:56:28.605Z,0.40
2018-02-13T19:58:56.049Z,0.31
2018-02-13T20:01:26.557Z,0.36
2018-02-13T20:03:54.007Z,0.34
2018-02-13T20:06:21.733Z,0.28
2018-02-13T20:08:49.593Z,0.28
2018-02-13T20:11:17.745Z,0.34
2018-02-13T20:13:45.365Z,0.32
2018-02-13T20:16:12.824Z,0.40
2018-02-13T20:18:40.317Z,0.35
2018-02-13T20:21:08.349Z,0.37
2018-02-13T20:23:36.273Z,0.34
2018-02-13T20:26:03.749Z,0.35
2018-02-13T20:28:31.821Z,0.35
2018-02-13T20:30:59.266Z,0.37
2018-02-13T20:33:27.673Z,0.32
2018-02-13T20:35:55.990Z,0.28
2018-02-13T20:38:23.447Z,0.24
2018-02-13T20:40:50.885Z,0.05
2018-02-13T20:43:23.214Z,-0.02
2018-02-13T20:45:50.692Z,0.00
2018-02-13T20:48:18.175Z,-0.11
2018-02-13T20:50:45.649Z,-0.15
2018-02-13T20:53:13.094Z,-0.24
2018-02-13T20:55:40.560Z,-0.22
2018-02-13T20:58:08.045Z,-0.25
2018-02-13T21:00:35.516Z,-0.28
2018-02-13T21:03:02.954Z,-0.40
2018-02-13T21:05:30.405Z,-0.51
2018-02-13T21:07:57.865Z,-0.48
2018-02-13T21:10:25.340Z,-0.35
2018-02-13T21:12:53.269Z,-0.30
2018-02-13T21:15:20.724Z,-0.11
2018-02-13T21:17:49.655Z,0.02
2018-02-13T21:20:17.137Z,-0.15
2018-02-13T21:22:44.581Z,-0.22
2018-02-13T21:25:12.049Z,0.01
2018-02-13T21:27:39.513Z,-0.14
2018-02-13T21:30:06.957Z,-0.12
2018-02-13T21:32:34.420Z,0.08
2018-02-13T21:35:01.861Z,0.15
2018-02-13T21:37:29.570Z,0.12
2018-02-13T21:39:57.009Z,-0.05
2018-02-13T21:42:24.713Z,-0.48
2018-02-13T21:44:53.376Z,-0.40
2018-02-13T21:47:20.836Z,-0.37
2018-02-13T21:49:48.548Z,-0.61
2018-02-13T21:52:15.991Z,-0.66
2018-02-13T21:54:43.438Z,-0.78
2018-02-13T21:57:10.933Z,-0.89
2018-02-13T21:59:38.399Z,-0.66
2018-02-13T22:02:06.005Z,-0.20
2018-02-13T22:04:33.468Z,-0.26
2018-02-13T22:07:00.913Z,-0.30
2018-02-13T22:09:28.379Z,-0.56
2018-02-13T22:11:55.820Z,-0.47
2018-02-13T22:14:23.365Z,-0.65
2018-02-13T22:16:50.816Z,-0.37
2018-02-13T22:19:18.276Z,-0.83
2018-02-13T22:21:45.732Z,-0.57
2018-02-13T22:24:13.181Z,-0.76
2018-02-13T22:26:40.807Z,-0.59
2018-02-13T22:29:08.264Z,-0.39
2018-02-13T22:31:35.704Z,-0.78
2018-02-13T22:34:03.181Z,-0.68
2018-02-13T22:36:30.625Z,-1.05
2018-02-13T22:38:58.348Z,-1.13
2018-02-13T22:41:25.792Z,-1.28
2018-02-13T22:43:53.300Z,-1.42
2018-02-13T22:46:20.833Z,-1.15
2018-02-13T22:48:48.278Z,-0.99
2018-02-13T22:51:16.176Z,-1.38
2018-02-13T22:53:44.501Z,-1.68
2018-02-13T22:56:11.960Z,-1.89
2018-02-13T22:58:39.444Z,-2.02
2018-02-13T23:01:06.909Z,-2.15
2018-02-13T23:03:34.580Z,-2.03
2018-02-13T23:06:02.037Z,-1.89
2018-02-13T23:08:29.484Z,-2.03
2018-02-13T23:10:56.948Z,-2.05
2018-02-13T23:13:24.385Z,-2.27
2018-02-13T23:15:51.861Z,-2.25
2018-02-13T23:18:19.305Z,-2.07
2018-02-13T23:20:46.744Z,-2.21
2018-02-13T23:23:14.237Z,-2.49
2018-02-13T23:25:41.676Z,-2.60
2018-02-13T23:28:09.388Z,-2.14
2018-02-13T23:30:36.828Z,-2.18
2018-02-13T23:33:04.273Z,-2.14
2018-02-13T23:35:31.741Z,-2.26
2018-02-13T23:37:59.205Z,-2.30
2018-02-13T23:40:26.681Z,-2.78
2018-02-13T23:42:54.129Z,-2.77
2018-02-13T23:45:21.580Z,-2.95
2018-02-13T23:47:49.049Z,-3.02
2018-02-13T23:50:16.493Z,-2.97
2018-02-13T23:52:43.975Z,-3.07
2018-02-13T23:55:11.445Z,-3.22
2018-02-13T23:57:38.901Z,-3.26
